sensor_id;sensor_type;location;lat;lon;timestamp;P1;durP1;ratioP1;P2;durP2;ratioP2
74328;SDS011;62745;51.060;13.786;2023-12-04T00:01:26;16.67;;;6.95;;
74328;SDS011;62745;51.060;13.786;2023-12-04T00:03:51;19.57;;;8.40;;
74328;SDS011;62745;51.060;13.786;2023-12-04T00:06:17;17.02;;;7.40;;
74328;SDS011;62745;51.060;13.786;2023-12-04T00:08:43;17.43;;;7.57;;
74328;SDS011;62745;51.060;13.786;2023-12-04T00:11:08;19.00;;;7.57;;
74328;SDS011;62745;51.060;13.786;2023-12-04T00:13:33;17.17;;;7.33;;
74328;SDS011;62745;51.060;13.786;2023-12-04T00:15:59;20.40;;;7.70;;
74328;SDS011;62745;51.060;13.786;2023-12-04T00:18:25;19.23;;;7.40;;
74328;SDS011;62745;51.060;13.786;2023-12-04T00:20:50;17.50;;;7.78;;
74328;SDS011;62745;51.060;13.786;2023-12-04T00:23:15;15.83;;;7.17;;
74328;SDS011;62745;51.060;13.786;2023-12-04T00:25:41;17.40;;;7.37;;
74328;SDS011;62745;51.060;13.786;2023-12-04T00:28:06;15.25;;;7.15;;
74328;SDS011;62745;51.060;13.786;2023-12-04T00:30:31;16.27;;;7.03;;
74328;SDS011;62745;51.060;13.786;2023-12-04T00:32:56;17.53;;;7.27;;
74328;SDS011;62745;51.060;13.786;2023-12-04T00:35:22;15.97;;;6.47;;
74328;SDS011;62745;51.060;13.786;2023-12-04T00:37:47;19.13;;;6.93;;
74328;SDS011;62745;51.060;13.786;2023-12-04T00:40:12;13.07;;;5.90;;
74328;SDS011;62745;51.060;13.786;2023-12-04T00:42:38;16.63;;;6.07;;
74328;SDS011;62745;51.060;13.786;2023-12-04T00:45:03;18.75;;;6.35;;
74328;SDS011;62745;51.060;13.786;2023-12-04T00:47:29;14.43;;;6.60;;
74328;SDS011;62745;51.060;13.786;2023-12-04T00:49:54;17.10;;;7.27;;
74328;SDS011;62745;51.060;13.786;2023-12-04T00:52:19;17.55;;;6.50;;
74328;SDS011;62745;51.060;13.786;2023-12-04T00:54:45;17.83;;;6.90;;
74328;SDS011;62745;51.060;13.786;2023-12-04T00:57:10;14.52;;;6.20;;
74328;SDS011;62745;51.060;13.786;2023-12-04T00:59:35;15.13;;;5.50;;
74328;SDS011;62745;51.060;13.786;2023-12-04T01:02:01;16.55;;;6.55;;
74328;SDS011;62745;51.060;13.786;2023-12-04T01:04:26;16.85;;;7.10;;
74328;SDS011;62745;51.060;13.786;2023-12-04T01:06:51;16.13;;;7.27;;
74328;SDS011;62745;51.060;13.786;2023-12-04T01:09:17;15.10;;;6.32;;
74328;SDS011;62745;51.060;13.786;2023-12-04T01:11:42;17.40;;;7.20;;
74328;SDS011;62745;51.060;13.786;2023-12-04T01:14:07;16.35;;;6.30;;
74328;SDS011;62745;51.060;13.786;2023-12-04T01:16:33;17.48;;;5.93;;
74328;SDS011;62745;51.060;13.786;2023-12-04T01:18:58;16.73;;;6.67;;
74328;SDS011;62745;51.060;13.786;2023-12-04T01:21:23;16.00;;;6.72;;
74328;SDS011;62745;51.060;13.786;2023-12-04T01:23:49;17.38;;;7.25;;
74328;SDS011;62745;51.060;13.786;2023-12-04T01:26:14;15.70;;;6.35;;
74328;SDS011;62745;51.060;13.786;2023-12-04T01:28:40;15.57;;;6.50;;
74328;SDS011;62745;51.060;13.786;2023-12-04T01:31:05;16.03;;;6.43;;
74328;SDS011;62745;51.060;13.786;2023-12-04T01:33:31;14.95;;;6.03;;
74328;SDS011;62745;51.060;13.786;2023-12-04T01:35:56;13.10;;;6.23;;
74328;SDS011;62745;51.060;13.786;2023-12-04T01:38:21;13.47;;;6.27;;
74328;SDS011;62745;51.060;13.786;2023-12-04T01:40:47;17.73;;;6.17;;
74328;SDS011;62745;51.060;13.786;2023-12-04T01:43:12;12.82;;;6.30;;
74328;SDS011;62745;51.060;13.786;2023-12-04T01:45:37;10.95;;;5.50;;
74328;SDS011;62745;51.060;13.786;2023-12-04T01:48:03;16.20;;;7.03;;
74328;SDS011;62745;51.060;13.786;2023-12-04T01:50:29;15.07;;;6.78;;
74328;SDS011;62745;51.060;13.786;2023-12-04T01:52:54;18.92;;;6.88;;
74328;SDS011;62745;51.060;13.786;2023-12-04T01:55:20;19.98;;;5.85;;
74328;SDS011;62745;51.060;13.786;2023-12-04T01:57:47;14.25;;;6.35;;
74328;SDS011;62745;51.060;13.786;2023-12-04T02:00:12;16.60;;;6.50;;
74328;SDS011;62745;51.060;13.786;2023-12-04T02:02:39;18.15;;;7.65;;
74328;SDS011;62745;51.060;13.786;2023-12-04T02:05:05;16.95;;;6.07;;
74328;SDS011;62745;51.060;13.786;2023-12-04T02:07:33;18.45;;;7.05;;
74328;SDS011;62745;51.060;13.786;2023-12-04T02:09:59;15.60;;;6.60;;
74328;SDS011;62745;51.060;13.786;2023-12-04T02:12:24;16.13;;;6.32;;
74328;SDS011;62745;51.060;13.786;2023-12-04T02:14:50;16.30;;;6.70;;
74328;SDS011;62745;51.060;13.786;2023-12-04T02:17:16;14.88;;;5.93;;
74328;SDS011;62745;51.060;13.786;2023-12-04T02:19:42;17.42;;;6.88;;
74328;SDS011;62745;51.060;13.786;2023-12-04T02:22:08;18.02;;;8.30;;
74328;SDS011;62745;51.060;13.786;2023-12-04T02:24:33;13.30;;;5.80;;
74328;SDS011;62745;51.060;13.786;2023-12-04T02:27:05;17.08;;;6.18;;
74328;SDS011;62745;51.060;13.786;2023-12-04T02:29:51;14.20;;;5.80;;
74328;SDS011;62745;51.060;13.786;2023-12-04T02:32:21;18.25;;;7.18;;
74328;SDS011;62745;51.060;13.786;2023-12-04T02:34:49;18.00;;;6.97;;
74328;SDS011;62745;51.060;13.786;2023-12-04T02:37:15;16.77;;;7.15;;
74328;SDS011;62745;51.060;13.786;2023-12-04T02:39:42;15.82;;;6.40;;
74328;SDS011;62745;51.060;13.786;2023-12-04T02:42:08;16.40;;;6.18;;
74328;SDS011;62745;51.060;13.786;2023-12-04T02:44:33;21.02;;;7.60;;
74328;SDS011;62745;51.060;13.786;2023-12-04T02:46:58;21.13;;;7.40;;
74328;SDS011;62745;51.060;13.786;2023-12-04T02:49:24;17.35;;;6.53;;
74328;SDS011;62745;51.060;13.786;2023-12-04T02:51:49;19.95;;;7.15;;
74328;SDS011;62745;51.060;13.786;2023-12-04T02:54:15;17.00;;;7.47;;
74328;SDS011;62745;51.060;13.786;2023-12-04T02:56:40;17.80;;;6.50;;
74328;SDS011;62745;51.060;13.786;2023-12-04T02:59:05;15.85;;;7.43;;
74328;SDS011;62745;51.060;13.786;2023-12-04T03:01:31;20.47;;;8.17;;
74328;SDS011;62745;51.060;13.786;2023-12-04T03:03:56;15.48;;;6.85;;
74328;SDS011;62745;51.060;13.786;2023-12-04T03:06:21;16.40;;;6.45;;
74328;SDS011;62745;51.060;13.786;2023-12-04T03:08:48;16.83;;;7.00;;
74328;SDS011;62745;51.060;13.786;2023-12-04T03:11:13;16.58;;;7.25;;
74328;SDS011;62745;51.060;13.786;2023-12-04T03:13:38;15.37;;;6.47;;
74328;SDS011;62745;51.060;13.786;2023-12-04T03:16:04;16.43;;;7.20;;
74328;SDS011;62745;51.060;13.786;2023-12-04T03:18:29;16.35;;;6.95;;
74328;SDS011;62745;51.060;13.786;2023-12-04T03:20:55;26.05;;;7.93;;
74328;SDS011;62745;51.060;13.786;2023-12-04T03:23:20;16.40;;;7.00;;
74328;SDS011;62745;51.060;13.786;2023-12-04T03:25:45;19.43;;;7.07;;
74328;SDS011;62745;51.060;13.786;2023-12-04T03:28:11;15.57;;;7.30;;
74328;SDS011;62745;51.060;13.786;2023-12-04T03:30:38;15.88;;;6.85;;
74328;SDS011;62745;51.060;13.786;2023-12-04T03:33:03;19.33;;;7.85;;
74328;SDS011;62745;51.060;13.786;2023-12-04T03:35:28;25.87;;;7.50;;
74328;SDS011;62745;51.060;13.786;2023-12-04T03:37:54;17.50;;;8.07;;
74328;SDS011;62745;51.060;13.786;2023-12-04T03:40:19;15.07;;;6.22;;
74328;SDS011;62745;51.060;13.786;2023-12-04T03:42:44;14.30;;;5.93;;
74328;SDS011;62745;51.060;13.786;2023-12-04T03:45:10;18.60;;;7.18;;
74328;SDS011;62745;51.060;13.786;2023-12-04T03:47:35;17.67;;;6.85;;
74328;SDS011;62745;51.060;13.786;2023-12-04T03:50:00;15.80;;;6.97;;
74328;SDS011;62745;51.060;13.786;2023-12-04T03:52:26;14.30;;;5.43;;
74328;SDS011;62745;51.060;13.786;2023-12-04T03:54:51;15.30;;;6.90;;
74328;SDS011;62745;51.060;13.786;2023-12-04T03:57:17;17.60;;;7.67;;
74328;SDS011;62745;51.060;13.786;2023-12-04T03:59:43;19.27;;;7.67;;
74328;SDS011;62745;51.060;13.786;2023-12-04T04:02:08;16.65;;;6.82;;
74328;SDS011;62745;51.060;13.786;2023-12-04T04:04:34;17.47;;;6.87;;
74328;SDS011;62745;51.060;13.786;2023-12-04T04:06:59;19.30;;;7.00;;
74328;SDS011;62745;51.060;13.786;2023-12-04T04:09:24;18.33;;;7.25;;
74328;SDS011;62745;51.060;13.786;2023-12-04T04:11:50;14.37;;;6.60;;
74328;SDS011;62745;51.060;13.786;2023-12-04T04:14:15;18.67;;;6.70;;
74328;SDS011;62745;51.060;13.786;2023-12-04T04:16:40;16.70;;;6.67;;
74328;SDS011;62745;51.060;13.786;2023-12-04T04:19:06;17.27;;;7.43;;
74328;SDS011;62745;51.060;13.786;2023-12-04T04:21:31;19.00;;;6.83;;
74328;SDS011;62745;51.060;13.786;2023-12-04T04:23:56;15.10;;;6.70;;
74328;SDS011;62745;51.060;13.786;2023-12-04T04:26:22;15.23;;;7.53;;
74328;SDS011;62745;51.060;13.786;2023-12-04T04:28:47;21.50;;;7.63;;
74328;SDS011;62745;51.060;13.786;2023-12-04T04:31:12;18.47;;;8.13;;
74328;SDS011;62745;51.060;13.786;2023-12-04T04:33:38;19.33;;;8.23;;
74328;SDS011;62745;51.060;13.786;2023-12-04T04:36:03;16.47;;;7.13;;
74328;SDS011;62745;51.060;13.786;2023-12-04T04:38:29;19.55;;;6.38;;
74328;SDS011;62745;51.060;13.786;2023-12-04T04:40:54;14.83;;;6.70;;
74328;SDS011;62745;51.060;13.786;2023-12-04T04:43:19;21.10;;;7.93;;
74328;SDS011;62745;51.060;13.786;2023-12-04T04:45:45;19.38;;;6.60;;
74328;SDS011;62745;51.060;13.786;2023-12-04T04:48:10;17.97;;;6.47;;
74328;SDS011;62745;51.060;13.786;2023-12-04T04:50:36;15.07;;;6.35;;
74328;SDS011;62745;51.060;13.786;2023-12-04T04:53:01;18.45;;;6.72;;
74328;SDS011;62745;51.060;13.786;2023-12-04T04:55:26;17.13;;;6.97;;
74328;SDS011;62745;51.060;13.786;2023-12-04T04:57:51;15.27;;;6.10;;
74328;SDS011;62745;51.060;13.786;2023-12-04T05:00:17;13.77;;;6.50;;
74328;SDS011;62745;51.060;13.786;2023-12-04T05:02:42;13.70;;;5.82;;
74328;SDS011;62745;51.060;13.786;2023-12-04T05:05:08;13.48;;;6.35;;
74328;SDS011;62745;51.060;13.786;2023-12-04T05:07:33;15.57;;;6.33;;
74328;SDS011;62745;51.060;13.786;2023-12-04T05:09:58;18.02;;;6.35;;
74328;SDS011;62745;51.060;13.786;2023-12-04T05:12:24;20.07;;;6.13;;
74328;SDS011;62745;51.060;13.786;2023-12-04T05:14:49;15.93;;;6.43;;
74328;SDS011;62745;51.060;13.786;2023-12-04T05:17:14;17.00;;;5.73;;
74328;SDS011;62745;51.060;13.786;2023-12-04T05:19:40;16.90;;;6.90;;
74328;SDS011;62745;51.060;13.786;2023-12-04T05:22:05;15.15;;;5.60;;
74328;SDS011;62745;51.060;13.786;2023-12-04T05:24:31;15.88;;;5.90;;
74328;SDS011;62745;51.060;13.786;2023-12-04T05:26:56;13.50;;;5.90;;
74328;SDS011;62745;51.060;13.786;2023-12-04T05:29:21;14.13;;;5.83;;
74328;SDS011;62745;51.060;13.786;2023-12-04T05:31:46;16.27;;;5.93;;
74328;SDS011;62745;51.060;13.786;2023-12-04T05:34:12;13.47;;;6.07;;
74328;SDS011;62745;51.060;13.786;2023-12-04T05:36:37;16.10;;;6.05;;
74328;SDS011;62745;51.060;13.786;2023-12-04T05:39:03;13.45;;;5.88;;
74328;SDS011;62745;51.060;13.786;2023-12-04T05:41:29;12.65;;;5.18;;
74328;SDS011;62745;51.060;13.786;2023-12-04T05:43:55;13.02;;;5.57;;
74328;SDS011;62745;51.060;13.786;2023-12-04T05:46:20;15.03;;;5.40;;
74328;SDS011;62745;51.060;13.786;2023-12-04T05:48:45;18.67;;;6.77;;
74328;SDS011;62745;51.060;13.786;2023-12-04T05:51:11;11.97;;;4.77;;
74328;SDS011;62745;51.060;13.786;2023-12-04T05:53:36;13.05;;;5.75;;
74328;SDS011;62745;51.060;13.786;2023-12-04T05:56:01;15.13;;;5.03;;
74328;SDS011;62745;51.060;13.786;2023-12-04T05:58:27;15.05;;;5.78;;
74328;SDS011;62745;51.060;13.786;2023-12-04T06:00:52;12.93;;;5.50;;
74328;SDS011;62745;51.060;13.786;2023-12-04T06:03:18;11.97;;;4.73;;
74328;SDS011;62745;51.060;13.786;2023-12-04T06:05:43;15.10;;;5.17;;
74328;SDS011;62745;51.060;13.786;2023-12-04T06:08:08;14.67;;;6.77;;
74328;SDS011;62745;51.060;13.786;2023-12-04T06:10:33;13.80;;;5.30;;
74328;SDS011;62745;51.060;13.786;2023-12-04T06:13:00;11.98;;;4.95;;
74328;SDS011;62745;51.060;13.786;2023-12-04T06:15:25;12.43;;;5.05;;
74328;SDS011;62745;51.060;13.786;2023-12-04T06:17:51;12.53;;;4.37;;
74328;SDS011;62745;51.060;13.786;2023-12-04T06:20:16;11.95;;;5.10;;
74328;SDS011;62745;51.060;13.786;2023-12-04T06:22:41;12.23;;;5.90;;
74328;SDS011;62745;51.060;13.786;2023-12-04T06:25:07;11.15;;;5.07;;
74328;SDS011;62745;51.060;13.786;2023-12-04T06:27:33;15.98;;;5.57;;
74328;SDS011;62745;51.060;13.786;2023-12-04T06:29:59;12.52;;;5.40;;
74328;SDS011;62745;51.060;13.786;2023-12-04T06:32:24;11.45;;;5.13;;
74328;SDS011;62745;51.060;13.786;2023-12-04T06:34:50;13.68;;;5.35;;
74328;SDS011;62745;51.060;13.786;2023-12-04T06:37:15;15.07;;;6.00;;
74328;SDS011;62745;51.060;13.786;2023-12-04T06:39:41;11.75;;;4.80;;
74328;SDS011;62745;51.060;13.786;2023-12-04T06:42:07;13.65;;;5.78;;
74328;SDS011;62745;51.060;13.786;2023-12-04T06:44:33;12.52;;;4.75;;
74328;SDS011;62745;51.060;13.786;2023-12-04T06:46:59;15.10;;;5.47;;
74328;SDS011;62745;51.060;13.786;2023-12-04T06:49:27;15.18;;;6.50;;
74328;SDS011;62745;51.060;13.786;2023-12-04T06:51:55;16.27;;;6.20;;
74328;SDS011;62745;51.060;13.786;2023-12-04T06:54:20;9.60;;;4.30;;
74328;SDS011;62745;51.060;13.786;2023-12-04T06:56:46;14.77;;;5.47;;
74328;SDS011;62745;51.060;13.786;2023-12-04T06:59:11;13.03;;;5.30;;
74328;SDS011;62745;51.060;13.786;2023-12-04T07:01:36;11.80;;;5.00;;
74328;SDS011;62745;51.060;13.786;2023-12-04T07:04:02;14.65;;;5.22;;
74328;SDS011;62745;51.060;13.786;2023-12-04T07:06:34;11.38;;;4.88;;
74328;SDS011;62745;51.060;13.786;2023-12-04T07:09:00;13.43;;;5.35;;
74328;SDS011;62745;51.060;13.786;2023-12-04T07:11:26;14.25;;;4.65;;
74328;SDS011;62745;51.060;13.786;2023-12-04T07:13:51;12.40;;;4.73;;
74328;SDS011;62745;51.060;13.786;2023-12-04T07:16:16;12.82;;;4.72;;
74328;SDS011;62745;51.060;13.786;2023-12-04T07:18:42;12.38;;;4.63;;
74328;SDS011;62745;51.060;13.786;2023-12-04T07:21:07;9.65;;;4.93;;
74328;SDS011;62745;51.060;13.786;2023-12-04T07:23:33;12.10;;;5.10;;
74328;SDS011;62745;51.060;13.786;2023-12-04T07:25:58;12.23;;;4.87;;
74328;SDS011;62745;51.060;13.786;2023-12-04T07:28:23;13.13;;;5.00;;
74328;SDS011;62745;51.060;13.786;2023-12-04T07:30:49;12.20;;;5.28;;
74328;SDS011;62745;51.060;13.786;2023-12-04T07:33:14;12.90;;;5.40;;
74328;SDS011;62745;51.060;13.786;2023-12-04T07:35:40;9.17;;;3.80;;
74328;SDS011;62745;51.060;13.786;2023-12-04T07:38:05;9.63;;;4.30;;
74328;SDS011;62745;51.060;13.786;2023-12-04T07:40:30;12.00;;;4.93;;
74328;SDS011;62745;51.060;13.786;2023-12-04T07:42:57;10.00;;;4.05;;
74328;SDS011;62745;51.060;13.786;2023-12-04T07:45:22;11.63;;;4.60;;
74328;SDS011;62745;51.060;13.786;2023-12-04T07:47:48;12.02;;;4.97;;
74328;SDS011;62745;51.060;13.786;2023-12-04T07:50:15;13.93;;;5.82;;
74328;SDS011;62745;51.060;13.786;2023-12-04T07:52:41;8.55;;;4.13;;
74328;SDS011;62745;51.060;13.786;2023-12-04T07:55:06;9.35;;;4.38;;
74328;SDS011;62745;51.060;13.786;2023-12-04T07:57:32;11.88;;;5.43;;
74328;SDS011;62745;51.060;13.786;2023-12-04T07:59:57;12.80;;;4.97;;
74328;SDS011;62745;51.060;13.786;2023-12-04T08:02:23;11.02;;;4.57;;
74328;SDS011;62745;51.060;13.786;2023-12-04T08:04:48;12.13;;;4.80;;
74328;SDS011;62745;51.060;13.786;2023-12-04T08:07:13;12.83;;;5.20;;
74328;SDS011;62745;51.060;13.786;2023-12-04T08:09:40;13.15;;;4.60;;
74328;SDS011;62745;51.060;13.786;2023-12-04T08:12:06;9.15;;;4.35;;
74328;SDS011;62745;51.060;13.786;2023-12-04T08:14:31;10.40;;;4.17;;
74328;SDS011;62745;51.060;13.786;2023-12-04T08:16:57;10.68;;;5.00;;
74328;SDS011;62745;51.060;13.786;2023-12-04T08:19:23;11.43;;;4.97;;
74328;SDS011;62745;51.060;13.786;2023-12-04T08:21:48;9.18;;;4.72;;
74328;SDS011;62745;51.060;13.786;2023-12-04T08:24:14;12.80;;;4.80;;
74328;SDS011;62745;51.060;13.786;2023-12-04T08:26:41;10.40;;;4.38;;
74328;SDS011;62745;51.060;13.786;2023-12-04T08:29:06;12.23;;;4.53;;
74328;SDS011;62745;51.060;13.786;2023-12-04T08:31:32;9.60;;;4.70;;
74328;SDS011;62745;51.060;13.786;2023-12-04T08:33:57;11.93;;;4.93;;
74328;SDS011;62745;51.060;13.786;2023-12-04T08:36:22;10.90;;;4.60;;
74328;SDS011;62745;51.060;13.786;2023-12-04T08:38:48;11.23;;;4.07;;
74328;SDS011;62745;51.060;13.786;2023-12-04T08:41:13;10.90;;;5.03;;
74328;SDS011;62745;51.060;13.786;2023-12-04T08:43:38;12.02;;;5.35;;
74328;SDS011;62745;51.060;13.786;2023-12-04T08:46:04;10.83;;;5.07;;
74328;SDS011;62745;51.060;13.786;2023-12-04T08:48:29;10.77;;;4.65;;
74328;SDS011;62745;51.060;13.786;2023-12-04T08:50:55;12.52;;;4.63;;
74328;SDS011;62745;51.060;13.786;2023-12-04T08:53:20;11.82;;;5.15;;
74328;SDS011;62745;51.060;13.786;2023-12-04T08:55:45;9.95;;;5.45;;
74328;SDS011;62745;51.060;13.786;2023-12-04T08:58:11;10.35;;;5.03;;
74328;SDS011;62745;51.060;13.786;2023-12-04T09:00:37;11.07;;;4.60;;
74328;SDS011;62745;51.060;13.786;2023-12-04T09:03:07;9.60;;;4.68;;
74328;SDS011;62745;51.060;13.786;2023-12-04T09:05:32;9.97;;;3.97;;
74328;SDS011;62745;51.060;13.786;2023-12-04T09:07:58;8.90;;;4.40;;
74328;SDS011;62745;51.060;13.786;2023-12-04T09:10:23;12.67;;;4.90;;
74328;SDS011;62745;51.060;13.786;2023-12-04T09:12:49;10.10;;;4.60;;
74328;SDS011;62745;51.060;13.786;2023-12-04T09:15:14;9.17;;;3.63;;
74328;SDS011;62745;51.060;13.786;2023-12-04T09:17:39;11.73;;;4.47;;
74328;SDS011;62745;51.060;13.786;2023-12-04T09:20:04;11.47;;;5.17;;
74328;SDS011;62745;51.060;13.786;2023-12-04T09:22:30;12.82;;;4.82;;
74328;SDS011;62745;51.060;13.786;2023-12-04T09:24:56;7.88;;;3.80;;
74328;SDS011;62745;51.060;13.786;2023-12-04T09:27:22;12.10;;;5.00;;
74328;SDS011;62745;51.060;13.786;2023-12-04T09:29:47;9.52;;;4.70;;
74328;SDS011;62745;51.060;13.786;2023-12-04T09:32:12;10.70;;;4.80;;
74328;SDS011;62745;51.060;13.786;2023-12-04T09:34:38;9.77;;;4.53;;
74328;SDS011;62745;51.060;13.786;2023-12-04T09:37:03;12.07;;;5.60;;
74328;SDS011;62745;51.060;13.786;2023-12-04T09:39:29;10.07;;;4.05;;
74328;SDS011;62745;51.060;13.786;2023-12-04T09:41:55;10.38;;;4.47;;
74328;SDS011;62745;51.060;13.786;2023-12-04T09:44:21;9.93;;;4.30;;
74328;SDS011;62745;51.060;13.786;2023-12-04T09:46:49;9.07;;;4.63;;
74328;SDS011;62745;51.060;13.786;2023-12-04T09:49:16;11.55;;;4.63;;
74328;SDS011;62745;51.060;13.786;2023-12-04T09:51:43;11.98;;;4.68;;
74328;SDS011;62745;51.060;13.786;2023-12-04T09:54:09;13.82;;;4.68;;
74328;SDS011;62745;51.060;13.786;2023-12-04T09:56:34;11.45;;;4.82;;
74328;SDS011;62745;51.060;13.786;2023-12-04T09:59:00;10.13;;;4.72;;
74328;SDS011;62745;51.060;13.786;2023-12-04T10:01:29;8.85;;;4.88;;
74328;SDS011;62745;51.060;13.786;2023-12-04T10:03:58;9.07;;;4.15;;
74328;SDS011;62745;51.060;13.786;2023-12-04T10:06:26;10.25;;;5.28;;
74328;SDS011;62745;51.060;13.786;2023-12-04T10:08:52;9.80;;;4.47;;
74328;SDS011;62745;51.060;13.786;2023-12-04T10:11:18;9.30;;;4.72;;
74328;SDS011;62745;51.060;13.786;2023-12-04T10:13:43;10.17;;;4.60;;
74328;SDS011;62745;51.060;13.786;2023-12-04T10:16:09;12.98;;;4.88;;
74328;SDS011;62745;51.060;13.786;2023-12-04T10:18:34;10.57;;;4.87;;
74328;SDS011;62745;51.060;13.786;2023-12-04T10:21:00;10.88;;;4.55;;
74328;SDS011;62745;51.060;13.786;2023-12-04T10:26:03;10.75;;;5.22;;
74328;SDS011;62745;51.060;13.786;2023-12-04T10:28:29;10.50;;;4.65;;
74328;SDS011;62745;51.060;13.786;2023-12-04T10:30:55;11.48;;;5.13;;
74328;SDS011;62745;51.060;13.786;2023-12-04T10:33:20;11.23;;;4.28;;
74328;SDS011;62745;51.060;13.786;2023-12-04T10:35:46;11.90;;;5.95;;
74328;SDS011;62745;51.060;13.786;2023-12-04T10:38:12;10.60;;;4.68;;
74328;SDS011;62745;51.060;13.786;2023-12-04T10:40:39;9.32;;;4.45;;
74328;SDS011;62745;51.060;13.786;2023-12-04T10:45:39;8.60;;;4.30;;
74328;SDS011;62745;51.060;13.786;2023-12-04T10:48:06;10.18;;;4.65;;
74328;SDS011;62745;51.060;13.786;2023-12-04T10:50:43;11.18;;;5.82;;
74328;SDS011;62745;51.060;13.786;2023-12-04T10:53:11;10.68;;;4.47;;
74328;SDS011;62745;51.060;13.786;2023-12-04T10:55:37;13.57;;;6.00;;
74328;SDS011;62745;51.060;13.786;2023-12-04T10:58:08;10.57;;;5.10;;
74328;SDS011;62745;51.060;13.786;2023-12-04T11:00:36;10.20;;;4.65;;
74328;SDS011;62745;51.060;13.786;2023-12-04T11:03:07;10.77;;;4.13;;
74328;SDS011;62745;51.060;13.786;2023-12-04T11:05:37;11.07;;;4.95;;
74328;SDS011;62745;51.060;13.786;2023-12-04T11:08:03;10.82;;;4.90;;
74328;SDS011;62745;51.060;13.786;2023-12-04T11:10:32;10.60;;;4.78;;
74328;SDS011;62745;51.060;13.786;2023-12-04T11:13:08;13.55;;;4.95;;
74328;SDS011;62745;51.060;13.786;2023-12-04T11:15:39;10.52;;;4.50;;
74328;SDS011;62745;51.060;13.786;2023-12-04T11:18:09;13.57;;;4.65;;
74328;SDS011;62745;51.060;13.786;2023-12-04T11:20:44;10.80;;;4.75;;
74328;SDS011;62745;51.060;13.786;2023-12-04T11:23:13;14.05;;;5.10;;
74328;SDS011;62745;51.060;13.786;2023-12-04T11:25:40;12.70;;;4.80;;
74328;SDS011;62745;51.060;13.786;2023-12-04T11:28:06;13.63;;;5.78;;
74328;SDS011;62745;51.060;13.786;2023-12-04T11:30:32;13.18;;;4.75;;
74328;SDS011;62745;51.060;13.786;2023-12-04T11:32:59;9.02;;;4.30;;
74328;SDS011;62745;51.060;13.786;2023-12-04T11:35:25;11.40;;;4.90;;
74328;SDS011;62745;51.060;13.786;2023-12-04T11:37:51;13.07;;;5.68;;
74328;SDS011;62745;51.060;13.786;2023-12-04T11:40:20;11.30;;;4.93;;
74328;SDS011;62745;51.060;13.786;2023-12-04T11:42:45;12.90;;;5.18;;
74328;SDS011;62745;51.060;13.786;2023-12-04T11:45:17;11.17;;;4.77;;
74328;SDS011;62745;51.060;13.786;2023-12-04T11:47:52;8.02;;;3.90;;
74328;SDS011;62745;51.060;13.786;2023-12-04T11:50:20;11.43;;;4.80;;
74328;SDS011;62745;51.060;13.786;2023-12-04T11:52:46;10.35;;;4.82;;
74328;SDS011;62745;51.060;13.786;2023-12-04T11:55:15;11.93;;;4.63;;
74328;SDS011;62745;51.060;13.786;2023-12-04T11:57:41;9.93;;;4.63;;
74328;SDS011;62745;51.060;13.786;2023-12-04T12:03:00;11.02;;;4.97;;
74328;SDS011;62745;51.060;13.786;2023-12-04T12:05:27;9.88;;;4.95;;
74328;SDS011;62745;51.060;13.786;2023-12-04T12:07:54;8.15;;;4.00;;
74328;SDS011;62745;51.060;13.786;2023-12-04T12:10:20;11.35;;;4.93;;
74328;SDS011;62745;51.060;13.786;2023-12-04T12:12:46;9.55;;;4.43;;
74328;SDS011;62745;51.060;13.786;2023-12-04T12:15:12;9.63;;;4.15;;
74328;SDS011;62745;51.060;13.786;2023-12-04T12:17:38;9.70;;;4.18;;
74328;SDS011;62745;51.060;13.786;2023-12-04T12:20:06;9.20;;;4.53;;
74328;SDS011;62745;51.060;13.786;2023-12-04T12:25:03;9.32;;;3.92;;
74328;SDS011;62745;51.060;13.786;2023-12-04T12:27:29;12.43;;;4.97;;
74328;SDS011;62745;51.060;13.786;2023-12-04T12:29:55;12.73;;;4.80;;
74328;SDS011;62745;51.060;13.786;2023-12-04T12:32:21;9.90;;;4.00;;
74328;SDS011;62745;51.060;13.786;2023-12-04T12:34:49;9.43;;;4.60;;
74328;SDS011;62745;51.060;13.786;2023-12-04T12:37:14;11.13;;;4.70;;
74328;SDS011;62745;51.060;13.786;2023-12-04T12:39:40;10.30;;;5.00;;
74328;SDS011;62745;51.060;13.786;2023-12-04T12:42:06;11.10;;;4.55;;
74328;SDS011;62745;51.060;13.786;2023-12-04T12:44:38;9.48;;;4.40;;
74328;SDS011;62745;51.060;13.786;2023-12-04T12:47:07;8.55;;;4.10;;
74328;SDS011;62745;51.060;13.786;2023-12-04T12:49:33;9.65;;;4.32;;
74328;SDS011;62745;51.060;13.786;2023-12-04T12:52:00;11.18;;;4.43;;
74328;SDS011;62745;51.060;13.786;2023-12-04T12:54:26;12.73;;;5.05;;
74328;SDS011;62745;51.060;13.786;2023-12-04T12:56:51;11.43;;;4.97;;
74328;SDS011;62745;51.060;13.786;2023-12-04T12:59:19;13.20;;;5.30;;
74328;SDS011;62745;51.060;13.786;2023-12-04T13:01:47;10.93;;;5.10;;
74328;SDS011;62745;51.060;13.786;2023-12-04T13:04:13;11.90;;;5.60;;
74328;SDS011;62745;51.060;13.786;2023-12-04T13:06:40;11.18;;;4.68;;
74328;SDS011;62745;51.060;13.786;2023-12-04T13:09:05;10.63;;;4.68;;
74328;SDS011;62745;51.060;13.786;2023-12-04T13:11:31;12.18;;;5.57;;
74328;SDS011;62745;51.060;13.786;2023-12-04T13:13:57;13.23;;;6.03;;
74328;SDS011;62745;51.060;13.786;2023-12-04T13:16:22;14.13;;;5.25;;
74328;SDS011;62745;51.060;13.786;2023-12-04T13:18:48;13.00;;;6.05;;
74328;SDS011;62745;51.060;13.786;2023-12-04T13:21:13;14.83;;;5.63;;
74328;SDS011;62745;51.060;13.786;2023-12-04T13:23:38;12.20;;;5.30;;
74328;SDS011;62745;51.060;13.786;2023-12-04T13:26:03;12.60;;;4.73;;
74328;SDS011;62745;51.060;13.786;2023-12-04T13:28:29;11.38;;;5.15;;
74328;SDS011;62745;51.060;13.786;2023-12-04T13:30:54;11.95;;;5.05;;
74328;SDS011;62745;51.060;13.786;2023-12-04T13:33:20;13.52;;;5.00;;
74328;SDS011;62745;51.060;13.786;2023-12-04T13:35:46;11.90;;;5.05;;
74328;SDS011;62745;51.060;13.786;2023-12-04T13:38:11;13.23;;;4.93;;
74328;SDS011;62745;51.060;13.786;2023-12-04T13:40:38;11.63;;;5.13;;
74328;SDS011;62745;51.060;13.786;2023-12-04T13:43:04;14.68;;;5.13;;
74328;SDS011;62745;51.060;13.786;2023-12-04T13:45:48;13.25;;;5.45;;
74328;SDS011;62745;51.060;13.786;2023-12-04T13:48:14;11.23;;;4.57;;
74328;SDS011;62745;51.060;13.786;2023-12-04T13:50:40;12.73;;;5.00;;
74328;SDS011;62745;51.060;13.786;2023-12-04T13:53:05;13.93;;;5.70;;
74328;SDS011;62745;51.060;13.786;2023-12-04T13:55:32;9.50;;;4.97;;
74328;SDS011;62745;51.060;13.786;2023-12-04T13:58:16;12.25;;;5.32;;
74328;SDS011;62745;51.060;13.786;2023-12-04T14:01:00;11.68;;;5.47;;
74328;SDS011;62745;51.060;13.786;2023-12-04T14:03:34;13.55;;;4.80;;
74328;SDS011;62745;51.060;13.786;2023-12-04T14:06:00;10.40;;;4.97;;
74328;SDS011;62745;51.060;13.786;2023-12-04T14:08:26;13.55;;;5.43;;
74328;SDS011;62745;51.060;13.786;2023-12-04T14:10:53;15.32;;;5.43;;
74328;SDS011;62745;51.060;13.786;2023-12-04T14:13:19;13.03;;;5.97;;
74328;SDS011;62745;51.060;13.786;2023-12-04T14:15:45;11.70;;;5.43;;
74328;SDS011;62745;51.060;13.786;2023-12-04T14:18:11;11.77;;;5.65;;
74328;SDS011;62745;51.060;13.786;2023-12-04T14:20:39;13.10;;;5.43;;
74328;SDS011;62745;51.060;13.786;2023-12-04T14:23:04;13.18;;;6.10;;
74328;SDS011;62745;51.060;13.786;2023-12-04T14:25:30;10.90;;;5.13;;
74328;SDS011;62745;51.060;13.786;2023-12-04T14:27:55;10.35;;;5.03;;